Coquitlam, Canada
Current Conditions -  °F | °C
As of 9:00 AM on Wednesday 26 Nov 2014 (Local Time) from CYVR Reporting Station
Overcast Overcast  
Wind Chill: 41°   Ceiling: 700
Heat Index: 45°   Visibility: 15mi
Dew Point: 45°   Wind: 7mph
Humidity: 100%   Direction: 100°E
Pressure: 30.07"   Gusts: NA
Location:  49.27°N, 122.78°W
Report Text: CYVR 261700Z 10006KT 15SM FEW003 BKN007 OVC011 07/07 A3007 RMK SF1ST6SC1 VIS N 10SM SLP181
Loading
Personal Weather Stations






























Interactive Weather Map New forecast layout! Learn more

10-Day Weather Forecast

Advertisements
Track Severe Weather on mobile